sensor_id;sensor_type;location;lat;lon;timestamp;temperature;humidity
20658;DHT22;10488;50.846;4.078;2023-09-07T00:01:26;18.50;99.90
20658;DHT22;10488;50.846;4.078;2023-09-07T00:03:52;18.50;99.90
20658;DHT22;10488;50.846;4.078;2023-09-07T00:06:17;18.50;99.90
20658;DHT22;10488;50.846;4.078;2023-09-07T00:08:44;18.50;99.90
20658;DHT22;10488;50.846;4.078;2023-09-07T00:11:09;18.40;99.90
20658;DHT22;10488;50.846;4.078;2023-09-07T00:13:36;18.40;99.90
20658;DHT22;10488;50.846;4.078;2023-09-07T00:16:05;18.40;99.90
20658;DHT22;10488;50.846;4.078;2023-09-07T00:18:32;18.30;99.90
20658;DHT22;10488;50.846;4.078;2023-09-07T00:20:59;18.30;99.90
20658;DHT22;10488;50.846;4.078;2023-09-07T00:23:25;18.20;99.90
20658;DHT22;10488;50.846;4.078;2023-09-07T00:25:51;18.30;99.90
20658;DHT22;10488;50.846;4.078;2023-09-07T00:28:17;18.20;99.90
20658;DHT22;10488;50.846;4.078;2023-09-07T00:30:43;18.10;99.90
20658;DHT22;10488;50.846;4.078;2023-09-07T00:33:09;18.10;99.90
20658;DHT22;10488;50.846;4.078;2023-09-07T00:35:35;18.00;99.90
20658;DHT22;10488;50.846;4.078;2023-09-07T00:38:01;18.00;99.90
20658;DHT22;10488;50.846;4.078;2023-09-07T00:40:26;17.90;99.90
20658;DHT22;10488;50.846;4.078;2023-09-07T00:42:53;17.90;99.90
20658;DHT22;10488;50.846;4.078;2023-09-07T00:45:19;18.00;99.90
20658;DHT22;10488;50.846;4.078;2023-09-07T00:47:45;18.00;99.90
20658;DHT22;10488;50.846;4.078;2023-09-07T00:50:10;18.10;99.90
20658;DHT22;10488;50.846;4.078;2023-09-07T00:52:42;18.10;99.90
20658;DHT22;10488;50.846;4.078;2023-09-07T00:55:08;18.10;99.90
20658;DHT22;10488;50.846;4.078;2023-09-07T00:57:35;18.00;99.90
20658;DHT22;10488;50.846;4.078;2023-09-07T01:00:05;18.00;99.90
20658;DHT22;10488;50.846;4.078;2023-09-07T01:02:33;18.00;99.90
20658;DHT22;10488;50.846;4.078;2023-09-07T01:04:59;17.90;99.90
20658;DHT22;10488;50.846;4.078;2023-09-07T01:07:31;17.90;99.90
20658;DHT22;10488;50.846;4.078;2023-09-07T01:09:59;17.80;99.90
20658;DHT22;10488;50.846;4.078;2023-09-07T01:12:26;17.80;99.90
20658;DHT22;10488;50.846;4.078;2023-09-07T01:14:51;17.80;99.90
20658;DHT22;10488;50.846;4.078;2023-09-07T01:17:18;17.80;99.90
20658;DHT22;10488;50.846;4.078;2023-09-07T01:19:48;17.80;99.90
20658;DHT22;10488;50.846;4.078;2023-09-07T01:22:17;17.70;99.90
20658;DHT22;10488;50.846;4.078;2023-09-07T01:24:45;17.60;99.90
20658;DHT22;10488;50.846;4.078;2023-09-07T01:27:11;17.60;99.90
20658;DHT22;10488;50.846;4.078;2023-09-07T01:29:39;17.60;99.90
20658;DHT22;10488;50.846;4.078;2023-09-07T01:32:05;17.60;99.90
20658;DHT22;10488;50.846;4.078;2023-09-07T01:34:32;17.60;99.90
20658;DHT22;10488;50.846;4.078;2023-09-07T01:36:57;17.60;99.90
20658;DHT22;10488;50.846;4.078;2023-09-07T01:39:23;17.50;99.90
20658;DHT22;10488;50.846;4.078;2023-09-07T01:41:49;17.50;99.90
20658;DHT22;10488;50.846;4.078;2023-09-07T01:44:14;17.50;99.90
20658;DHT22;10488;50.846;4.078;2023-09-07T01:46:40;17.50;99.90
20658;DHT22;10488;50.846;4.078;2023-09-07T01:49:06;17.40;99.90
20658;DHT22;10488;50.846;4.078;2023-09-07T01:51:31;17.30;99.90
20658;DHT22;10488;50.846;4.078;2023-09-07T01:53:57;17.30;99.90
20658;DHT22;10488;50.846;4.078;2023-09-07T01:56:23;17.20;99.90
20658;DHT22;10488;50.846;4.078;2023-09-07T01:58:49;17.20;99.90
20658;DHT22;10488;50.846;4.078;2023-09-07T02:01:24;17.20;99.90
20658;DHT22;10488;50.846;4.078;2023-09-07T02:03:51;17.00;99.90
20658;DHT22;10488;50.846;4.078;2023-09-07T02:06:17;17.00;99.90
20658;DHT22;10488;50.846;4.078;2023-09-07T02:08:42;16.90;99.90
20658;DHT22;10488;50.846;4.078;2023-09-07T02:11:08;17.00;99.90
20658;DHT22;10488;50.846;4.078;2023-09-07T02:13:34;17.00;99.90
20658;DHT22;10488;50.846;4.078;2023-09-07T02:16:04;17.00;99.90
20658;DHT22;10488;50.846;4.078;2023-09-07T02:18:29;17.10;99.90
20658;DHT22;10488;50.846;4.078;2023-09-07T02:21:01;17.00;99.90
20658;DHT22;10488;50.846;4.078;2023-09-07T02:23:27;17.00;99.90
20658;DHT22;10488;50.846;4.078;2023-09-07T02:25:53;17.00;99.90
20658;DHT22;10488;50.846;4.078;2023-09-07T02:28:18;17.00;99.90
20658;DHT22;10488;50.846;4.078;2023-09-07T02:30:44;17.00;99.90
20658;DHT22;10488;50.846;4.078;2023-09-07T02:33:10;17.00;99.90
20658;DHT22;10488;50.846;4.078;2023-09-07T02:35:38;17.00;99.90
20658;DHT22;10488;50.846;4.078;2023-09-07T02:38:04;17.00;99.90
20658;DHT22;10488;50.846;4.078;2023-09-07T02:40:30;16.90;99.90
20658;DHT22;10488;50.846;4.078;2023-09-07T02:42:55;16.80;99.90
20658;DHT22;10488;50.846;4.078;2023-09-07T02:45:21;16.80;99.90
20658;DHT22;10488;50.846;4.078;2023-09-07T02:47:46;16.80;99.90
20658;DHT22;10488;50.846;4.078;2023-09-07T02:50:14;16.70;99.90
20658;DHT22;10488;50.846;4.078;2023-09-07T02:52:41;16.70;99.90
20658;DHT22;10488;50.846;4.078;2023-09-07T02:55:07;16.70;99.90
20658;DHT22;10488;50.846;4.078;2023-09-07T02:57:32;16.70;99.90
20658;DHT22;10488;50.846;4.078;2023-09-07T02:59:59;16.70;99.90
20658;DHT22;10488;50.846;4.078;2023-09-07T03:02:25;16.70;99.90
20658;DHT22;10488;50.846;4.078;2023-09-07T03:04:54;16.70;99.90
20658;DHT22;10488;50.846;4.078;2023-09-07T03:07:20;16.60;99.90
20658;DHT22;10488;50.846;4.078;2023-09-07T03:09:46;16.50;99.90
20658;DHT22;10488;50.846;4.078;2023-09-07T03:12:11;16.50;99.90
20658;DHT22;10488;50.846;4.078;2023-09-07T03:14:37;16.60;99.90
20658;DHT22;10488;50.846;4.078;2023-09-07T03:17:03;16.60;99.90
20658;DHT22;10488;50.846;4.078;2023-09-07T03:19:29;16.50;99.90
20658;DHT22;10488;50.846;4.078;2023-09-07T03:21:55;16.50;99.90
20658;DHT22;10488;50.846;4.078;2023-09-07T03:24:20;16.50;99.90
20658;DHT22;10488;50.846;4.078;2023-09-07T03:26:46;16.40;99.90
20658;DHT22;10488;50.846;4.078;2023-09-07T03:29:12;16.40;99.90
20658;DHT22;10488;50.846;4.078;2023-09-07T03:31:37;16.30;99.90
20658;DHT22;10488;50.846;4.078;2023-09-07T03:34:03;16.30;99.90
20658;DHT22;10488;50.846;4.078;2023-09-07T03:36:29;16.30;99.90
20658;DHT22;10488;50.846;4.078;2023-09-07T03:38:54;16.30;99.90
20658;DHT22;10488;50.846;4.078;2023-09-07T03:41:20;16.30;99.90
20658;DHT22;10488;50.846;4.078;2023-09-07T03:43:46;16.30;99.90
20658;DHT22;10488;50.846;4.078;2023-09-07T03:46:11;16.30;99.90
20658;DHT22;10488;50.846;4.078;2023-09-07T03:48:37;16.30;99.90
20658;DHT22;10488;50.846;4.078;2023-09-07T03:51:06;16.30;99.90
20658;DHT22;10488;50.846;4.078;2023-09-07T03:53:32;16.30;99.90
20658;DHT22;10488;50.846;4.078;2023-09-07T03:55:58;16.20;99.90
20658;DHT22;10488;50.846;4.078;2023-09-07T03:58:23;16.30;99.90
20658;DHT22;10488;50.846;4.078;2023-09-07T04:00:49;16.10;99.90
20658;DHT22;10488;50.846;4.078;2023-09-07T04:03:15;16.20;99.90
20658;DHT22;10488;50.846;4.078;2023-09-07T04:05:40;16.20;99.90
20658;DHT22;10488;50.846;4.078;2023-09-07T04:08:06;16.10;99.90
20658;DHT22;10488;50.846;4.078;2023-09-07T04:10:33;16.10;99.90
20658;DHT22;10488;50.846;4.078;2023-09-07T04:12:58;16.10;99.90
20658;DHT22;10488;50.846;4.078;2023-09-07T04:15:24;16.10;99.90
20658;DHT22;10488;50.846;4.078;2023-09-07T04:17:52;16.10;99.90
20658;DHT22;10488;50.846;4.078;2023-09-07T04:20:17;16.10;99.90
20658;DHT22;10488;50.846;4.078;2023-09-07T04:22:43;16.00;99.90
20658;DHT22;10488;50.846;4.078;2023-09-07T04:25:09;16.00;99.90
20658;DHT22;10488;50.846;4.078;2023-09-07T04:27:34;16.00;99.90
20658;DHT22;10488;50.846;4.078;2023-09-07T04:30:00;16.00;99.90
20658;DHT22;10488;50.846;4.078;2023-09-07T04:32:26;16.00;99.90
20658;DHT22;10488;50.846;4.078;2023-09-07T04:34:57;16.00;99.90
20658;DHT22;10488;50.846;4.078;2023-09-07T04:37:25;16.00;99.90
20658;DHT22;10488;50.846;4.078;2023-09-07T04:39:51;16.00;99.90
20658;DHT22;10488;50.846;4.078;2023-09-07T04:42:18;16.00;99.90
20658;DHT22;10488;50.846;4.078;2023-09-07T04:44:44;15.90;99.90
20658;DHT22;10488;50.846;4.078;2023-09-07T04:47:10;16.00;99.90
20658;DHT22;10488;50.846;4.078;2023-09-07T04:49:35;15.90;99.90
20658;DHT22;10488;50.846;4.078;2023-09-07T04:52:01;15.90;99.90
20658;DHT22;10488;50.846;4.078;2023-09-07T04:54:27;15.90;99.90
20658;DHT22;10488;50.846;4.078;2023-09-07T04:56:52;15.90;99.90
20658;DHT22;10488;50.846;4.078;2023-09-07T04:59:18;15.90;99.90
20658;DHT22;10488;50.846;4.078;2023-09-07T05:01:44;15.90;99.90
20658;DHT22;10488;50.846;4.078;2023-09-07T05:04:09;15.90;99.90
20658;DHT22;10488;50.846;4.078;2023-09-07T05:06:35;15.80;99.90
20658;DHT22;10488;50.846;4.078;2023-09-07T05:09:03;15.80;99.90
20658;DHT22;10488;50.846;4.078;2023-09-07T05:11:29;15.80;99.90
20658;DHT22;10488;50.846;4.078;2023-09-07T05:13:54;15.80;99.90
20658;DHT22;10488;50.846;4.078;2023-09-07T05:16:20;15.80;99.90
20658;DHT22;10488;50.846;4.078;2023-09-07T05:18:46;15.90;99.90
20658;DHT22;10488;50.846;4.078;2023-09-07T05:21:13;15.80;99.90
20658;DHT22;10488;50.846;4.078;2023-09-07T05:23:39;15.80;99.90
20658;DHT22;10488;50.846;4.078;2023-09-07T05:26:05;15.90;99.90
20658;DHT22;10488;50.846;4.078;2023-09-07T05:28:31;15.90;99.90
20658;DHT22;10488;50.846;4.078;2023-09-07T05:30:57;15.90;99.90
20658;DHT22;10488;50.846;4.078;2023-09-07T05:33:22;15.90;99.90
20658;DHT22;10488;50.846;4.078;2023-09-07T05:35:48;16.00;99.90
20658;DHT22;10488;50.846;4.078;2023-09-07T05:38:14;16.00;99.90
20658;DHT22;10488;50.846;4.078;2023-09-07T05:40:41;16.00;99.90
20658;DHT22;10488;50.846;4.078;2023-09-07T05:43:07;16.00;99.90
20658;DHT22;10488;50.846;4.078;2023-09-07T05:45:35;16.00;99.90
20658;DHT22;10488;50.846;4.078;2023-09-07T05:48:04;16.20;99.90
20658;DHT22;10488;50.846;4.078;2023-09-07T05:50:33;16.80;99.90
20658;DHT22;10488;50.846;4.078;2023-09-07T05:52:58;17.80;99.90
20658;DHT22;10488;50.846;4.078;2023-09-07T05:55:24;18.50;99.90
20658;DHT22;10488;50.846;4.078;2023-09-07T05:57:54;19.20;99.90
20658;DHT22;10488;50.846;4.078;2023-09-07T06:00:20;19.80;99.90
20658;DHT22;10488;50.846;4.078;2023-09-07T06:02:46;20.50;99.90
20658;DHT22;10488;50.846;4.078;2023-09-07T06:05:12;20.50;99.90
20658;DHT22;10488;50.846;4.078;2023-09-07T06:07:38;20.80;99.90
20658;DHT22;10488;50.846;4.078;2023-09-07T06:10:04;20.70;99.90
20658;DHT22;10488;50.846;4.078;2023-09-07T06:12:31;20.60;99.90
20658;DHT22;10488;50.846;4.078;2023-09-07T06:14:58;20.60;99.90
20658;DHT22;10488;50.846;4.078;2023-09-07T06:17:23;21.00;99.90
20658;DHT22;10488;50.846;4.078;2023-09-07T06:19:49;21.30;99.90
20658;DHT22;10488;50.846;4.078;2023-09-07T06:22:15;21.60;99.90
20658;DHT22;10488;50.846;4.078;2023-09-07T06:24:40;21.90;99.90
20658;DHT22;10488;50.846;4.078;2023-09-07T06:27:06;21.70;99.90
20658;DHT22;10488;50.846;4.078;2023-09-07T06:29:32;21.80;99.90
20658;DHT22;10488;50.846;4.078;2023-09-07T06:31:57;21.80;99.90
20658;DHT22;10488;50.846;4.078;2023-09-07T06:34:24;22.30;99.90
20658;DHT22;10488;50.846;4.078;2023-09-07T06:36:50;22.30;99.90
20658;DHT22;10488;50.846;4.078;2023-09-07T06:39:16;21.40;99.90
20658;DHT22;10488;50.846;4.078;2023-09-07T06:41:46;21.50;99.90
20658;DHT22;10488;50.846;4.078;2023-09-07T06:44:13;21.30;99.90
20658;DHT22;10488;50.846;4.078;2023-09-07T06:46:39;21.00;99.90
20658;DHT22;10488;50.846;4.078;2023-09-07T06:49:05;21.40;99.90
20658;DHT22;10488;50.846;4.078;2023-09-07T06:51:31;21.40;99.90
20658;DHT22;10488;50.846;4.078;2023-09-07T06:53:57;21.80;99.90
20658;DHT22;10488;50.846;4.078;2023-09-07T06:56:23;21.80;99.90
20658;DHT22;10488;50.846;4.078;2023-09-07T06:58:49;22.00;99.90
20658;DHT22;10488;50.846;4.078;2023-09-07T07:01:14;21.70;99.90
20658;DHT22;10488;50.846;4.078;2023-09-07T07:03:41;21.60;99.90
20658;DHT22;10488;50.846;4.078;2023-09-07T07:06:07;21.70;99.90
20658;DHT22;10488;50.846;4.078;2023-09-07T07:08:32;21.90;99.90
20658;DHT22;10488;50.846;4.078;2023-09-07T07:10:58;22.00;99.90
20658;DHT22;10488;50.846;4.078;2023-09-07T07:13:24;22.80;99.90
20658;DHT22;10488;50.846;4.078;2023-09-07T07:15:49;23.50;99.90
20658;DHT22;10488;50.846;4.078;2023-09-07T07:18:15;23.50;99.90
20658;DHT22;10488;50.846;4.078;2023-09-07T07:20:42;23.80;99.90
20658;DHT22;10488;50.846;4.078;2023-09-07T07:23:09;24.00;99.90
20658;DHT22;10488;50.846;4.078;2023-09-07T07:25:35;24.40;99.90
20658;DHT22;10488;50.846;4.078;2023-09-07T07:28:02;24.20;99.90
20658;DHT22;10488;50.846;4.078;2023-09-07T07:30:34;24.60;99.90
20658;DHT22;10488;50.846;4.078;2023-09-07T07:33:01;25.10;99.90
20658;DHT22;10488;50.846;4.078;2023-09-07T07:35:29;24.80;99.90
20658;DHT22;10488;50.846;4.078;2023-09-07T07:37:54;25.30;99.90
20658;DHT22;10488;50.846;4.078;2023-09-07T07:40:20;24.90;99.90
20658;DHT22;10488;50.846;4.078;2023-09-07T07:42:47;24.40;99.90
20658;DHT22;10488;50.846;4.078;2023-09-07T07:45:13;24.50;99.90
20658;DHT22;10488;50.846;4.078;2023-09-07T07:47:40;24.60;99.90
20658;DHT22;10488;50.846;4.078;2023-09-07T07:50:06;25.00;99.90
20658;DHT22;10488;50.846;4.078;2023-09-07T07:52:32;25.20;99.90
20658;DHT22;10488;50.846;4.078;2023-09-07T07:54:58;25.90;99.90
20658;DHT22;10488;50.846;4.078;2023-09-07T07:57:24;26.30;99.90
20658;DHT22;10488;50.846;4.078;2023-09-07T07:59:49;26.20;99.90
20658;DHT22;10488;50.846;4.078;2023-09-07T08:02:15;26.70;99.90
20658;DHT22;10488;50.846;4.078;2023-09-07T08:04:41;26.70;99.90
20658;DHT22;10488;50.846;4.078;2023-09-07T08:07:07;26.50;99.90
20658;DHT22;10488;50.846;4.078;2023-09-07T08:09:34;26.90;99.90
20658;DHT22;10488;50.846;4.078;2023-09-07T08:12:00;27.40;99.90
20658;DHT22;10488;50.846;4.078;2023-09-07T08:14:30;27.60;99.90
20658;DHT22;10488;50.846;4.078;2023-09-07T08:16:57;27.00;99.90
20658;DHT22;10488;50.846;4.078;2023-09-07T08:19:22;26.90;99.90
20658;DHT22;10488;50.846;4.078;2023-09-07T08:21:48;27.40;99.90
20658;DHT22;10488;50.846;4.078;2023-09-07T08:24:14;26.80;99.90
20658;DHT22;10488;50.846;4.078;2023-09-07T08:26:40;26.60;99.90
20658;DHT22;10488;50.846;4.078;2023-09-07T08:29:06;26.10;99.90
20658;DHT22;10488;50.846;4.078;2023-09-07T08:31:40;26.30;99.90
20658;DHT22;10488;50.846;4.078;2023-09-07T08:34:07;26.60;99.90
20658;DHT22;10488;50.846;4.078;2023-09-07T08:36:34;26.30;99.90
20658;DHT22;10488;50.846;4.078;2023-09-07T08:39:04;26.40;99.90
20658;DHT22;10488;50.846;4.078;2023-09-07T08:41:39;26.20;99.90
20658;DHT22;10488;50.846;4.078;2023-09-07T08:44:11;26.20;99.90
20658;DHT22;10488;50.846;4.078;2023-09-07T08:46:40;26.30;99.90
20658;DHT22;10488;50.846;4.078;2023-09-07T08:49:10;27.00;99.90
20658;DHT22;10488;50.846;4.078;2023-09-07T08:51:38;27.00;99.90
20658;DHT22;10488;50.846;4.078;2023-09-07T08:54:04;27.60;99.90
20658;DHT22;10488;50.846;4.078;2023-09-07T08:56:31;27.50;99.90
20658;DHT22;10488;50.846;4.078;2023-09-07T08:58:57;27.20;99.90
20658;DHT22;10488;50.846;4.078;2023-09-07T09:01:23;27.20;99.90
20658;DHT22;10488;50.846;4.078;2023-09-07T09:03:50;28.00;99.90
20658;DHT22;10488;50.846;4.078;2023-09-07T09:06:20;28.40;99.90
20658;DHT22;10488;50.846;4.078;2023-09-07T09:08:50;28.70;99.90
20658;DHT22;10488;50.846;4.078;2023-09-07T09:11:16;28.20;99.90
20658;DHT22;10488;50.846;4.078;2023-09-07T09:13:43;28.20;99.90
20658;DHT22;10488;50.846;4.078;2023-09-07T09:16:10;27.90;99.90
20658;DHT22;10488;50.846;4.078;2023-09-07T09:18:36;27.70;99.90
20658;DHT22;10488;50.846;4.078;2023-09-07T09:21:01;27.30;99.90
20658;DHT22;10488;50.846;4.078;2023-09-07T09:23:33;27.40;99.90
20658;DHT22;10488;50.846;4.078;2023-09-07T09:26:00;27.50;99.90
20658;DHT22;10488;50.846;4.078;2023-09-07T09:28:26;27.30;99.90
20658;DHT22;10488;50.846;4.078;2023-09-07T09:30:58;27.10;99.90
20658;DHT22;10488;50.846;4.078;2023-09-07T09:33:23;27.10;99.90
20658;DHT22;10488;50.846;4.078;2023-09-07T09:35:50;27.00;99.90
20658;DHT22;10488;50.846;4.078;2023-09-07T09:38:17;27.10;99.90
20658;DHT22;10488;50.846;4.078;2023-09-07T09:40:42;26.80;99.90
20658;DHT22;10488;50.846;4.078;2023-09-07T09:43:10;27.00;99.90
20658;DHT22;10488;50.846;4.078;2023-09-07T09:45:37;26.90;99.90
20658;DHT22;10488;50.846;4.078;2023-09-07T09:48:05;27.00;99.90
20658;DHT22;10488;50.846;4.078;2023-09-07T09:50:32;26.90;99.90
20658;DHT22;10488;50.846;4.078;2023-09-07T09:53:00;27.00;99.90
20658;DHT22;10488;50.846;4.078;2023-09-07T09:55:27;27.30;99.90
20658;DHT22;10488;50.846;4.078;2023-09-07T09:57:54;27.60;99.90
20658;DHT22;10488;50.846;4.078;2023-09-07T10:00:23;27.70;99.90
20658;DHT22;10488;50.846;4.078;2023-09-07T10:03:11;27.60;99.90
20658;DHT22;10488;50.846;4.078;2023-09-07T10:05:38;27.30;99.90
20658;DHT22;10488;50.846;4.078;2023-09-07T10:08:11;27.50;99.90
20658;DHT22;10488;50.846;4.078;2023-09-07T10:10:37;27.40;99.90
20658;DHT22;10488;50.846;4.078;2023-09-07T10:13:04;27.40;99.90
20658;DHT22;10488;50.846;4.078;2023-09-07T10:15:31;27.70;99.90
20658;DHT22;10488;50.846;4.078;2023-09-07T10:18:13;27.70;99.90
20658;DHT22;10488;50.846;4.078;2023-09-07T10:20:51;27.70;99.90
20658;DHT22;10488;50.846;4.078;2023-09-07T10:23:18;27.60;99.90
20658;DHT22;10488;50.846;4.078;2023-09-07T10:25:48;27.70;99.90
20658;DHT22;10488;50.846;4.078;2023-09-07T10:28:22;27.80;99.90
20658;DHT22;10488;50.846;4.078;2023-09-07T10:31:17;27.90;99.90
20658;DHT22;10488;50.846;4.078;2023-09-07T10:33:43;28.10;99.90
20658;DHT22;10488;50.846;4.078;2023-09-07T10:36:24;28.20;99.90
20658;DHT22;10488;50.846;4.078;2023-09-07T10:38:50;28.10;99.90
20658;DHT22;10488;50.846;4.078;2023-09-07T10:41:20;28.10;99.90
20658;DHT22;10488;50.846;4.078;2023-09-07T10:43:51;28.20;99.90
20658;DHT22;10488;50.846;4.078;2023-09-07T10:46:21;28.30;99.90
20658;DHT22;10488;50.846;4.078;2023-09-07T10:48:51;28.50;99.90
20658;DHT22;10488;50.846;4.078;2023-09-07T10:51:20;28.20;99.90
20658;DHT22;10488;50.846;4.078;2023-09-07T10:53:46;27.70;99.90
20658;DHT22;10488;50.846;4.078;2023-09-07T10:56:12;27.70;99.90
20658;DHT22;10488;50.846;4.078;2023-09-07T10:58:38;27.70;99.90
20658;DHT22;10488;50.846;4.078;2023-09-07T11:01:06;28.00;99.90
20658;DHT22;10488;50.846;4.078;2023-09-07T11:03:33;28.20;99.90
20658;DHT22;10488;50.846;4.078;2023-09-07T11:06:00;28.40;99.90
20658;DHT22;10488;50.846;4.078;2023-09-07T11:08:29;28.30;99.90
20658;DHT22;10488;50.846;4.078;2023-09-07T11:10:55;28.10;99.90
20658;DHT22;10488;50.846;4.078;2023-09-07T11:13:23;28.30;99.90
20658;DHT22;10488;50.846;4.078;2023-09-07T11:15:49;28.40;99.90
20658;DHT22;10488;50.846;4.078;2023-09-07T11:18:19;28.40;99.90
20658;DHT22;10488;50.846;4.078;2023-09-07T11:20:47;28.60;99.90
20658;DHT22;10488;50.846;4.078;2023-09-07T11:23:14;28.70;99.90
20658;DHT22;10488;50.846;4.078;2023-09-07T11:25:39;29.10;99.90
20658;DHT22;10488;50.846;4.078;2023-09-07T11:28:06;29.20;99.90
20658;DHT22;10488;50.846;4.078;2023-09-07T11:30:33;28.90;99.90
20658;DHT22;10488;50.846;4.078;2023-09-07T11:33:02;28.90;99.90
20658;DHT22;10488;50.846;4.078;2023-09-07T11:35:29;29.00;99.90
20658;DHT22;10488;50.846;4.078;2023-09-07T11:37:55;28.70;99.90
20658;DHT22;10488;50.846;4.078;2023-09-07T11:40:20;28.70;99.90
20658;DHT22;10488;50.846;4.078;2023-09-07T11:42:46;28.50;99.90
20658;DHT22;10488;50.846;4.078;2023-09-07T11:45:12;28.50;99.90
20658;DHT22;10488;50.846;4.078;2023-09-07T11:47:39;28.50;99.90
20658;DHT22;10488;50.846;4.078;2023-09-07T11:50:05;28.60;99.90
20658;DHT22;10488;50.846;4.078;2023-09-07T11:52:34;28.50;99.90
20658;DHT22;10488;50.846;4.078;2023-09-07T11:55:00;28.80;99.90
20658;DHT22;10488;50.846;4.078;2023-09-07T11:57:25;28.90;99.90
20658;DHT22;10488;50.846;4.078;2023-09-07T11:59:51;29.00;99.90
20658;DHT22;10488;50.846;4.078;2023-09-07T12:02:17;29.00;99.90
20658;DHT22;10488;50.846;4.078;2023-09-07T12:04:43;28.90;99.90
20658;DHT22;10488;50.846;4.078;2023-09-07T12:07:10;28.70;99.90
20658;DHT22;10488;50.846;4.078;2023-09-07T12:09:35;28.90;99.90
20658;DHT22;10488;50.846;4.078;2023-09-07T12:12:02;28.80;99.90
20658;DHT22;10488;50.846;4.078;2023-09-07T12:14:29;28.70;99.90
20658;DHT22;10488;50.846;4.078;2023-09-07T12:16:54;28.60;99.90
20658;DHT22;10488;50.846;4.078;2023-09-07T12:19:20;28.60;99.90
20658;DHT22;10488;50.846;4.078;2023-09-07T12:21:46;28.80;99.90
20658;DHT22;10488;50.846;4.078;2023-09-07T12:24:12;28.90;99.90
20658;DHT22;10488;50.846;4.078;2023-09-07T12:26:38;28.70;99.90
20658;DHT22;10488;50.846;4.078;2023-09-07T12:29:04;28.90;99.90
20658;DHT22;10488;50.846;4.078;2023-09-07T12:31:30;29.00;99.90
20658;DHT22;10488;50.846;4.078;2023-09-07T12:33:57;29.20;99.90
20658;DHT22;10488;50.846;4.078;2023-09-07T12:36:23;29.10;99.90
20658;DHT22;10488;50.846;4.078;2023-09-07T12:38:48;29.00;99.90
20658;DHT22;10488;50.846;4.078;2023-09-07T12:41:15;29.10;99.90
20658;DHT22;10488;50.846;4.078;2023-09-07T12:43:41;29.20;99.90
20658;DHT22;10488;50.846;4.078;2023-09-07T12:46:08;29.10;99.90
20658;DHT22;10488;50.846;4.078;2023-09-07T12:48:35;29.30;99.90
20658;DHT22;10488;50.846;4.078;2023-09-07T12:51:00;29.40;99.90
20658;DHT22;10488;50.846;4.078;2023-09-07T12:53:26;29.40;99.90
20658;DHT22;10488;50.846;4.078;2023-09-07T12:55:54;29.50;99.90
20658;DHT22;10488;50.846;4.078;2023-09-07T12:58:20;29.60;99.90
20658;DHT22;10488;50.846;4.078;2023-09-07T13:00:46;29.70;99.90
20658;DHT22;10488;50.846;4.078;2023-09-07T13:03:16;29.60;99.90
20658;DHT22;10488;50.846;4.078;2023-09-07T13:05:42;29.50;99.90
20658;DHT22;10488;50.846;4.078;2023-09-07T13:08:10;29.50;99.90
20658;DHT22;10488;50.846;4.078;2023-09-07T13:10:36;29.50;99.90
20658;DHT22;10488;50.846;4.078;2023-09-07T13:13:01;29.60;99.90
20658;DHT22;10488;50.846;4.078;2023-09-07T13:15:27;29.60;99.90
20658;DHT22;10488;50.846;4.078;2023-09-07T13:17:53;29.60;99.90
20658;DHT22;10488;50.846;4.078;2023-09-07T13:20:18;29.60;99.90
20658;DHT22;10488;50.846;4.078;2023-09-07T13:22:45;29.50;99.90
20658;DHT22;10488;50.846;4.078;2023-09-07T13:25:12;29.50;99.90
20658;DHT22;10488;50.846;4.078;2023-09-07T13:27:37;29.40;99.90
20658;DHT22;10488;50.846;4.078;2023-09-07T13:30:06;29.40;99.90
20658;DHT22;10488;50.846;4.078;2023-09-07T13:32:37;29.40;99.90
20658;DHT22;10488;50.846;4.078;2023-09-07T13:35:04;29.20;99.90
20658;DHT22;10488;50.846;4.078;2023-09-07T13:37:30;29.10;99.90
20658;DHT22;10488;50.846;4.078;2023-09-07T13:39:56;29.20;99.90
20658;DHT22;10488;50.846;4.078;2023-09-07T13:42:22;29.30;99.90
20658;DHT22;10488;50.846;4.078;2023-09-07T13:44:47;29.40;99.90
20658;DHT22;10488;50.846;4.078;2023-09-07T13:47:15;29.40;99.90
20658;DHT22;10488;50.846;4.078;2023-09-07T13:49:40;29.60;99.90
20658;DHT22;10488;50.846;4.078;2023-09-07T13:52:06;29.90;99.90
20658;DHT22;10488;50.846;4.078;2023-09-07T13:54:32;29.90;99.90
20658;DHT22;10488;50.846;4.078;2023-09-07T13:56:57;29.80;99.90
20658;DHT22;10488;50.846;4.078;2023-09-07T13:59:23;29.70;99.90
20658;DHT22;10488;50.846;4.078;2023-09-07T14:01:54;29.60;99.90
20658;DHT22;10488;50.846;4.078;2023-09-07T14:04:19;29.50;99.90
20658;DHT22;10488;50.846;4.078;2023-09-07T14:06:45;29.50;99.90
20658;DHT22;10488;50.846;4.078;2023-09-07T14:09:11;29.50;99.90
20658;DHT22;10488;50.846;4.078;2023-09-07T14:11:36;29.50;99.90
20658;DHT22;10488;50.846;4.078;2023-09-07T14:14:03;29.60;99.90
20658;DHT22;10488;50.846;4.078;2023-09-07T14:16:28;29.60;99.90
20658;DHT22;10488;50.846;4.078;2023-09-07T14:18:55;29.70;99.90
20658;DHT22;10488;50.846;4.078;2023-09-07T14:21:21;29.60;99.90
20658;DHT22;10488;50.846;4.078;2023-09-07T14:23:46;29.70;99.90
20658;DHT22;10488;50.846;4.078;2023-09-07T14:26:12;29.60;99.90
20658;DHT22;10488;50.846;4.078;2023-09-07T14:28:38;29.60;99.90
20658;DHT22;10488;50.846;4.078;2023-09-07T14:31:05;29.50;99.90
20658;DHT22;10488;50.846;4.078;2023-09-07T14:33:35;29.40;99.90
20658;DHT22;10488;50.846;4.078;2023-09-07T14:36:05;29.50;99.90
20658;DHT22;10488;50.846;4.078;2023-09-07T14:38:31;29.50;99.90
20658;DHT22;10488;50.846;4.078;2023-09-07T14:41:00;29.70;99.90
20658;DHT22;10488;50.846;4.078;2023-09-07T14:43:26;29.60;99.90
20658;DHT22;10488;50.846;4.078;2023-09-07T14:45:51;29.60;99.90
20658;DHT22;10488;50.846;4.078;2023-09-07T14:48:17;29.60;99.90
20658;DHT22;10488;50.846;4.078;2023-09-07T14:50:43;29.60;99.90
20658;DHT22;10488;50.846;4.078;2023-09-07T14:53:09;29.60;99.90
20658;DHT22;10488;50.846;4.078;2023-09-07T14:55:34;29.70;99.90
20658;DHT22;10488;50.846;4.078;2023-09-07T14:58:00;29.70;99.90
20658;DHT22;10488;50.846;4.078;2023-09-07T15:00:25;29.80;99.90
20658;DHT22;10488;50.846;4.078;2023-09-07T15:02:53;29.60;99.90
20658;DHT22;10488;50.846;4.078;2023-09-07T15:05:19;29.60;99.90
20658;DHT22;10488;50.846;4.078;2023-09-07T15:07:44;29.70;99.90
20658;DHT22;10488;50.846;4.078;2023-09-07T15:10:10;29.60;99.90
20658;DHT22;10488;50.846;4.078;2023-09-07T15:12:36;29.70;99.90
20658;DHT22;10488;50.846;4.078;2023-09-07T15:15:02;29.70;99.90
20658;DHT22;10488;50.846;4.078;2023-09-07T15:17:28;29.80;99.90
20658;DHT22;10488;50.846;4.078;2023-09-07T15:19:53;29.70;99.90
20658;DHT22;10488;50.846;4.078;2023-09-07T15:22:19;29.60;99.90
20658;DHT22;10488;50.846;4.078;2023-09-07T15:24:44;29.60;99.90
20658;DHT22;10488;50.846;4.078;2023-09-07T15:27:11;29.70;99.90